createdAt,value
2017-07-27T00:00:25.334Z,0
2017-07-27T00:02:26.800Z,0
2017-07-27T00:04:28.532Z,0
2017-07-27T00:06:30.107Z,0
2017-07-27T00:08:31.557Z,0
2017-07-27T00:11:13.986Z,0
2017-07-27T00:13:15.427Z,0
2017-07-27T00:15:16.924Z,0
2017-07-27T00:17:18.356Z,0
2017-07-27T00:19:20.295Z,0
2017-07-27T00:22:02.733Z,0
2017-07-27T00:24:04.217Z,0
2017-07-27T00:26:05.638Z,0
2017-07-27T00:28:07.386Z,0
2017-07-27T00:30:09.216Z,0
2017-07-27T00:32:11.101Z,0
2017-07-27T00:34:53.479Z,0
2017-07-27T00:36:54.910Z,0
2017-07-27T00:38:56.339Z,0
2017-07-27T00:40:57.770Z,0
2017-07-27T00:42:59.198Z,0
2017-07-27T00:45:00.629Z,0
2017-07-27T00:47:02.254Z,0
2017-07-27T00:49:03.696Z,0
2017-07-27T00:51:05.128Z,0
2017-07-27T00:53:06.566Z,0
2017-07-27T00:55:48.976Z,0
2017-07-27T00:57:50.408Z,0
2017-07-27T00:59:52.142Z,0
2017-07-27T01:01:53.533Z,0
2017-07-27T01:03:54.998Z,0
2017-07-27T01:05:56.501Z,0
2017-07-27T01:07:57.951Z,0
2017-07-27T01:09:59.390Z,0
2017-07-27T01:12:40.790Z,0
2017-07-27T01:14:42.229Z,0
2017-07-27T01:16:43.682Z,0
2017-07-27T01:18:45.107Z,0
2017-07-27T01:20:46.537Z,0
2017-07-27T01:22:47.971Z,0
2017-07-27T01:24:49.450Z,0
2017-07-27T01:26:50.873Z,0
2017-07-27T01:28:52.301Z,0
2017-07-27T01:30:53.777Z,0
2017-07-27T01:32:55.221Z,0
2017-07-27T01:34:56.645Z,0
2017-07-27T01:36:58.077Z,0
2017-07-27T01:38:59.511Z,0
2017-07-27T01:41:00.948Z,0
2017-07-27T01:43:43.357Z,0
2017-07-27T01:45:44.825Z,0
2017-07-27T01:47:46.266Z,0
2017-07-27T01:49:47.698Z,0
2017-07-27T01:51:49.124Z,0
2017-07-27T01:53:50.699Z,0
2017-07-27T01:55:52.160Z,0
2017-07-27T01:57:53.590Z,0
2017-07-27T02:00:35.011Z,0
2017-07-27T02:02:36.440Z,0
2017-07-27T02:04:37.865Z,0
2017-07-27T02:07:20.283Z,0
2017-07-27T02:09:21.708Z,0
2017-07-27T02:11:23.134Z,0
2017-07-27T02:14:05.540Z,0
2017-07-27T02:16:06.981Z,0
2017-07-27T02:18:08.407Z,0
2017-07-27T02:20:09.833Z,0
2017-07-27T02:22:11.265Z,0
2017-07-27T02:24:12.697Z,0
2017-07-27T02:26:14.129Z,0
2017-07-27T02:28:15.558Z,0
2017-07-27T02:30:16.991Z,0
2017-07-27T02:32:18.421Z,0
2017-07-27T02:34:19.851Z,0
2017-07-27T02:36:21.284Z,0
2017-07-27T02:38:22.741Z,0
2017-07-27T02:40:24.182Z,0
2017-07-27T02:42:25.626Z,0
2017-07-27T02:44:27.127Z,0
2017-07-27T02:47:09.530Z,0
2017-07-27T02:49:10.978Z,0
2017-07-27T02:51:12.397Z,0
2017-07-27T02:53:13.819Z,0
2017-07-27T02:55:15.265Z,0
2017-07-27T02:57:16.704Z,0
2017-07-27T02:59:18.138Z,0
2017-07-27T03:01:19.570Z,0
2017-07-27T03:03:20.992Z,0
2017-07-27T03:05:22.420Z,0
2017-07-27T03:07:23.852Z,0
2017-07-27T03:09:25.285Z,0
2017-07-27T03:11:26.732Z,0
2017-07-27T03:13:28.159Z,0
2017-07-27T03:15:29.617Z,0
2017-07-27T03:18:12.032Z,0
2017-07-27T03:20:13.478Z,0
2017-07-27T03:22:14.887Z,0
2017-07-27T03:24:16.316Z,4
2017-07-27T03:26:17.743Z,0
2017-07-27T03:28:19.170Z,4
2017-07-27T03:30:20.598Z,0
2017-07-27T03:32:22.028Z,4
2017-07-27T03:34:23.454Z,4
2017-07-27T03:36:24.882Z,4
2017-07-27T03:38:26.311Z,4
2017-07-27T03:40:27.784Z,4
2017-07-27T03:42:29.507Z,4
2017-07-27T03:44:31.116Z,8
2017-07-27T03:46:32.535Z,8
2017-07-27T03:48:34.014Z,4
2017-07-27T03:50:35.600Z,4
2017-07-27T03:52:37.182Z,4
2017-07-27T03:54:38.700Z,4
2017-07-27T03:56:40.197Z,4
2017-07-27T03:58:41.747Z,8
2017-07-27T04:00:43.225Z,8
2017-07-27T04:02:44.757Z,16
2017-07-27T04:04:46.234Z,16
2017-07-27T04:06:47.725Z,20
2017-07-27T04:08:49.197Z,24
2017-07-27T04:11:30.748Z,28
2017-07-27T04:13:32.199Z,32
2017-07-27T04:15:33.607Z,44
2017-07-27T04:17:35.086Z,56
2017-07-27T04:19:36.515Z,72
2017-07-27T04:21:38.031Z,108
2017-07-27T04:23:39.456Z,136
2017-07-27T04:25:40.881Z,140
2017-07-27T04:27:42.492Z,148
2017-07-27T04:29:43.904Z,172
2017-07-27T04:31:45.354Z,184
2017-07-27T04:33:46.788Z,188
2017-07-27T04:35:48.217Z,212
2017-07-27T04:37:49.647Z,224
2017-07-27T04:39:51.090Z,240
2017-07-27T04:41:52.669Z,256
2017-07-27T04:43:54.290Z,280
2017-07-27T04:45:55.760Z,316
2017-07-27T04:47:57.200Z,336
2017-07-27T04:49:58.630Z,368
2017-07-27T04:52:00.144Z,364
2017-07-27T04:54:01.606Z,360
2017-07-27T04:56:03.036Z,316
2017-07-27T04:58:04.469Z,276
2017-07-27T05:00:05.998Z,292
2017-07-27T05:02:07.742Z,300
2017-07-27T05:04:09.658Z,272
2017-07-27T05:06:11.176Z,212
2017-07-27T05:08:12.625Z,220
2017-07-27T05:10:14.068Z,244
2017-07-27T05:12:15.491Z,244
2017-07-27T05:14:16.953Z,288
2017-07-27T05:16:18.762Z,312
2017-07-27T05:18:20.233Z,328
2017-07-27T05:20:21.686Z,384
2017-07-27T05:22:23.169Z,396
2017-07-27T05:24:24.571Z,424
2017-07-27T05:26:26.015Z,576
2017-07-27T05:28:27.440Z,872
2017-07-27T05:30:28.879Z,1140
2017-07-27T05:32:30.678Z,1012
2017-07-27T05:34:32.238Z,912
2017-07-27T05:36:34.043Z,948
2017-07-27T05:38:36.049Z,1112
2017-07-27T05:41:18.643Z,1348
2017-07-27T05:43:20.191Z,524
2017-07-27T05:45:21.626Z,448
2017-07-27T05:48:04.049Z,336
2017-07-27T05:50:05.465Z,368
2017-07-27T05:52:06.896Z,416
2017-07-27T05:54:08.328Z,392
2017-07-27T05:56:09.760Z,392
2017-07-27T05:58:11.190Z,348
2017-07-27T06:00:12.628Z,320
2017-07-27T06:02:14.052Z,296
2017-07-27T06:04:15.498Z,260
2017-07-27T06:06:16.929Z,252
2017-07-27T06:08:18.366Z,268
2017-07-27T06:10:19.791Z,244
2017-07-27T06:13:02.210Z,296
2017-07-27T06:15:03.754Z,348
2017-07-27T06:17:05.201Z,412
2017-07-27T06:19:06.833Z,468
2017-07-27T06:21:08.241Z,476
2017-07-27T06:23:09.675Z,476
2017-07-27T06:25:11.330Z,476
2017-07-27T06:27:12.765Z,532
2017-07-27T06:29:14.317Z,504
2017-07-27T06:31:16.210Z,588
2017-07-27T06:33:18.181Z,672
2017-07-27T06:36:00.565Z,780
2017-07-27T06:38:02.000Z,1004
2017-07-27T06:40:03.442Z,2076
2017-07-27T06:42:04.871Z,1432
2017-07-27T06:44:06.306Z,1224
2017-07-27T06:46:07.750Z,916
2017-07-27T06:48:09.177Z,1120
2017-07-27T06:50:10.613Z,1116
2017-07-27T06:52:12.045Z,656
2017-07-27T06:54:13.543Z,544
2017-07-27T06:56:14.978Z,536
2017-07-27T06:58:16.417Z,464
2017-07-27T07:00:17.850Z,548
2017-07-27T07:02:19.287Z,560
2017-07-27T07:04:20.719Z,576
2017-07-27T07:06:22.148Z,692
2017-07-27T07:08:23.587Z,592
2017-07-27T07:10:25.012Z,644
2017-07-27T07:12:26.456Z,640
2017-07-27T07:14:27.922Z,652
2017-07-27T07:16:29.357Z,632
2017-07-27T07:18:30.800Z,656
2017-07-27T07:20:32.285Z,780
2017-07-27T07:22:33.822Z,880
2017-07-27T07:24:35.295Z,876
2017-07-27T07:26:36.792Z,1148
2017-07-27T07:28:38.288Z,816
2017-07-27T07:31:20.698Z,780
2017-07-27T07:33:22.134Z,608
2017-07-27T07:35:23.570Z,720
2017-07-27T07:37:25.000Z,968
2017-07-27T07:39:26.435Z,1016
2017-07-27T07:41:27.870Z,1148
2017-07-27T07:43:29.304Z,1008
2017-07-27T07:45:30.740Z,904
2017-07-27T07:47:32.177Z,936
2017-07-27T07:49:33.627Z,1000
2017-07-27T07:51:35.059Z,1100
2017-07-27T07:53:36.500Z,892
2017-07-27T07:55:37.926Z,876
2017-07-27T07:57:39.365Z,920
2017-07-27T07:59:40.793Z,936
2017-07-27T08:01:42.232Z,1004
2017-07-27T08:04:25.643Z,908
2017-07-27T08:06:27.105Z,808
2017-07-27T08:08:28.537Z,844
2017-07-27T08:10:29.970Z,880
2017-07-27T08:12:31.508Z,896
2017-07-27T08:14:32.940Z,1492
2017-07-27T08:16:34.374Z,1460
2017-07-27T08:18:35.809Z,1520
2017-07-27T08:20:37.258Z,2716
2017-07-27T08:22:38.809Z,3388
2017-07-27T08:24:40.320Z,2404
2017-07-27T08:26:41.897Z,1680
2017-07-27T08:28:43.404Z,1216
2017-07-27T08:30:45.032Z,1244
2017-07-27T08:32:46.537Z,1264
2017-07-27T08:35:28.956Z,1864
2017-07-27T08:37:30.409Z,2728
2017-07-27T08:39:31.844Z,1832
2017-07-27T08:42:14.249Z,1688
2017-07-27T08:44:15.769Z,2184
2017-07-27T08:46:17.199Z,2432
2017-07-27T08:48:18.638Z,2172
2017-07-27T08:50:20.072Z,1812
2017-07-27T08:52:21.509Z,2800
2017-07-27T08:54:22.944Z,2936
2017-07-27T08:56:24.380Z,3228
2017-07-27T08:58:25.820Z,1960
2017-07-27T09:00:27.256Z,2020
2017-07-27T09:02:28.692Z,1676
2017-07-27T09:04:30.127Z,1404
2017-07-27T09:06:31.565Z,1140
2017-07-27T09:09:13.981Z,1648
2017-07-27T09:11:15.418Z,1608
2017-07-27T09:13:16.855Z,1500
2017-07-27T09:15:18.296Z,1136
2017-07-27T09:17:19.734Z,1472
2017-07-27T09:19:21.175Z,1828
2017-07-27T09:21:22.612Z,1780
2017-07-27T09:23:24.052Z,2324
2017-07-27T09:25:25.487Z,1676
2017-07-27T09:27:26.926Z,2512
2017-07-27T09:29:28.564Z,2312
2017-07-27T09:31:30.068Z,1452
2017-07-27T09:33:31.516Z,1164
2017-07-27T09:35:32.945Z,1224
2017-07-27T09:37:34.444Z,1140
2017-07-27T09:40:16.862Z,1528
2017-07-27T09:42:18.303Z,1688
2017-07-27T09:44:19.741Z,2572
2017-07-27T09:46:21.178Z,2312
2017-07-27T09:48:22.620Z,2352
2017-07-27T09:50:24.059Z,2076
2017-07-27T09:52:25.495Z,2136
2017-07-27T09:54:26.946Z,2192
2017-07-27T09:56:28.400Z,2700
2017-07-27T09:58:29.834Z,2312
2017-07-27T10:00:31.281Z,2368
2017-07-27T10:02:32.745Z,2188
2017-07-27T10:04:34.238Z,2228
2017-07-27T10:06:36.064Z,3248
2017-07-27T10:08:37.485Z,2296
2017-07-27T10:10:38.922Z,2008
2017-07-27T10:12:40.364Z,1760
2017-07-27T10:14:41.800Z,1600
2017-07-27T10:16:43.236Z,1468
2017-07-27T10:18:44.675Z,1412
2017-07-27T10:20:46.114Z,1272
2017-07-27T10:22:47.550Z,1292
2017-07-27T10:24:49.034Z,1368
2017-07-27T10:26:50.468Z,1512
2017-07-27T10:28:51.908Z,3176
2017-07-27T10:30:53.369Z,1644
2017-07-27T10:32:54.828Z,1652
2017-07-27T10:34:56.277Z,1672
2017-07-27T10:36:57.722Z,1704
2017-07-27T10:38:59.165Z,1488
2017-07-27T10:41:00.600Z,1844
2017-07-27T10:43:02.054Z,1736
2017-07-27T10:45:44.495Z,1380
2017-07-27T10:47:45.930Z,1272
2017-07-27T10:49:47.372Z,1284
2017-07-27T10:51:48.812Z,1180
2017-07-27T10:53:50.253Z,1220
2017-07-27T10:55:51.695Z,1256
2017-07-27T10:57:53.132Z,1016
2017-07-27T10:59:54.570Z,1216
2017-07-27T11:01:56.002Z,1380
2017-07-27T11:03:57.444Z,2012
2017-07-27T11:05:58.883Z,2116
2017-07-27T11:08:00.320Z,1524
2017-07-27T11:10:01.765Z,1756
2017-07-27T11:12:03.193Z,1736
2017-07-27T11:14:04.630Z,1984
2017-07-27T11:16:47.057Z,1836
2017-07-27T11:18:48.495Z,1524
2017-07-27T11:20:49.932Z,1812
2017-07-27T11:22:51.372Z,1548
2017-07-27T11:24:53.064Z,2408
2017-07-27T11:26:54.515Z,2164
2017-07-27T11:28:55.976Z,2416
2017-07-27T11:30:57.493Z,1880
2017-07-27T11:33:39.934Z,1392
2017-07-27T11:35:41.375Z,1756
2017-07-27T11:37:42.815Z,1808
2017-07-27T11:39:44.251Z,1400
2017-07-27T11:41:45.691Z,1288
2017-07-27T11:43:47.128Z,1292
2017-07-27T11:45:48.567Z,1716
2017-07-27T11:47:50.003Z,1496
2017-07-27T11:49:51.442Z,1180
2017-07-27T11:51:52.910Z,1236
2017-07-27T11:53:54.379Z,1600
2017-07-27T11:55:55.925Z,1304
2017-07-27T11:57:57.410Z,1176
2017-07-27T11:59:58.845Z,1276
2017-07-27T12:02:00.291Z,1160
2017-07-27T12:04:01.724Z,1528
2017-07-27T12:06:03.160Z,1320
2017-07-27T12:08:04.598Z,1484
2017-07-27T12:10:06.038Z,1592
2017-07-27T12:12:07.480Z,1336
2017-07-27T12:14:08.917Z,1328
2017-07-27T12:16:10.381Z,1576
2017-07-27T12:18:12.467Z,2428
2017-07-27T12:20:14.765Z,1248
2017-07-27T12:22:16.308Z,1248
2017-07-27T12:24:18.031Z,1268
2017-07-27T12:26:19.521Z,1300
2017-07-27T12:28:21.042Z,1436
2017-07-27T12:30:22.542Z,1508
2017-07-27T12:32:24.031Z,1960
2017-07-27T12:34:25.534Z,2304
2017-07-27T12:36:27.000Z,1676
2017-07-27T12:38:28.636Z,1800
2017-07-27T12:40:30.128Z,2580
2017-07-27T12:42:31.839Z,1552
2017-07-27T12:44:33.914Z,1396
2017-07-27T12:46:35.415Z,1180
2017-07-27T12:48:36.986Z,1292
2017-07-27T12:50:38.910Z,1560
2017-07-27T12:53:21.294Z,1288
2017-07-27T12:55:22.738Z,1224
2017-07-27T12:57:24.204Z,1344
2017-07-27T12:59:25.638Z,1236
2017-07-27T13:01:27.244Z,1200
2017-07-27T13:03:28.668Z,1236
2017-07-27T13:05:30.103Z,1188
2017-07-27T13:07:31.591Z,1140
2017-07-27T13:09:33.032Z,1152
2017-07-27T13:11:34.475Z,1116
2017-07-27T13:13:35.913Z,1040
2017-07-27T13:15:37.351Z,996
2017-07-27T13:17:38.789Z,948
2017-07-27T13:19:40.267Z,892
2017-07-27T13:21:41.747Z,848
2017-07-27T13:23:43.182Z,808
2017-07-27T13:25:44.611Z,768
2017-07-27T13:27:46.051Z,740
2017-07-27T13:29:47.506Z,728
2017-07-27T13:31:48.930Z,736
2017-07-27T13:33:50.367Z,728
2017-07-27T13:35:51.799Z,728
2017-07-27T13:37:53.242Z,736
2017-07-27T13:39:54.680Z,744
2017-07-27T13:41:56.123Z,764
2017-07-27T13:43:57.551Z,776
2017-07-27T13:45:58.997Z,780
2017-07-27T13:48:00.431Z,748
2017-07-27T13:50:01.871Z,724
2017-07-27T13:52:03.376Z,756
2017-07-27T13:54:04.821Z,820
2017-07-27T13:56:06.259Z,896
2017-07-27T13:58:07.696Z,948
2017-07-27T14:00:09.132Z,980
2017-07-27T14:02:10.569Z,1060
2017-07-27T14:04:12.004Z,1132
2017-07-27T14:06:13.443Z,1096
2017-07-27T14:08:14.878Z,984
2017-07-27T14:10:16.313Z,972
2017-07-27T14:12:17.757Z,1004
2017-07-27T14:14:19.196Z,1032
2017-07-27T14:16:20.648Z,1012
2017-07-27T14:18:22.098Z,1020
2017-07-27T14:20:23.535Z,992
2017-07-27T14:22:24.967Z,1020
2017-07-27T14:24:26.409Z,1080
2017-07-27T14:26:27.849Z,1116
2017-07-27T14:28:29.321Z,1324
2017-07-27T14:30:30.793Z,1416
2017-07-27T14:32:32.234Z,1172
2017-07-27T14:34:33.667Z,1136
2017-07-27T14:36:35.107Z,1068
2017-07-27T14:38:36.542Z,1032
2017-07-27T14:40:37.985Z,1132
2017-07-27T14:42:39.435Z,1820
2017-07-27T14:44:40.873Z,1236
2017-07-27T14:46:42.304Z,1752
2017-07-27T14:48:43.748Z,1640
2017-07-27T14:50:45.191Z,1460
2017-07-27T14:52:46.628Z,1568
2017-07-27T14:54:48.069Z,944
2017-07-27T14:56:49.547Z,600
2017-07-27T14:58:50.980Z,736
2017-07-27T15:00:52.418Z,884
2017-07-27T15:02:53.891Z,764
2017-07-27T15:04:55.334Z,804
2017-07-27T15:06:56.766Z,912
2017-07-27T15:08:58.351Z,1004
2017-07-27T15:10:59.800Z,1048
2017-07-27T15:13:01.239Z,1052
2017-07-27T15:15:02.679Z,1228
2017-07-27T15:17:04.229Z,1480
2017-07-27T15:19:05.673Z,1040
2017-07-27T15:21:07.104Z,956
2017-07-27T15:23:08.548Z,916
2017-07-27T15:25:09.984Z,944
2017-07-27T15:27:11.417Z,852
2017-07-27T15:29:53.914Z,768
2017-07-27T15:31:55.296Z,732
2017-07-27T15:33:56.744Z,792
2017-07-27T15:35:58.246Z,824
2017-07-27T15:37:59.928Z,744
2017-07-27T15:40:01.380Z,616
2017-07-27T15:42:02.842Z,572
2017-07-27T15:44:04.327Z,544
2017-07-27T15:46:05.889Z,456
2017-07-27T15:48:07.364Z,476
2017-07-27T15:50:08.909Z,544
2017-07-27T15:52:10.466Z,588
2017-07-27T15:54:11.977Z,744
2017-07-27T15:56:13.529Z,888
2017-07-27T15:58:15.056Z,824
2017-07-27T16:00:16.579Z,788
2017-07-27T16:02:59.026Z,704
2017-07-27T16:05:00.472Z,652
2017-07-27T16:07:01.899Z,640
2017-07-27T16:09:03.342Z,596
2017-07-27T16:11:04.782Z,748
2017-07-27T16:13:06.225Z,784
2017-07-27T16:15:07.691Z,932
2017-07-27T16:17:09.127Z,952
2017-07-27T16:19:10.564Z,852
2017-07-27T16:21:11.999Z,732
2017-07-27T16:23:13.437Z,672
2017-07-27T16:25:14.932Z,648
2017-07-27T16:27:16.367Z,656
2017-07-27T16:29:17.804Z,652
2017-07-27T16:31:19.239Z,648
2017-07-27T16:33:20.696Z,696
2017-07-27T16:36:03.105Z,516
2017-07-27T16:38:04.540Z,488
2017-07-27T16:40:05.998Z,456
2017-07-27T16:42:07.434Z,460
2017-07-27T16:44:08.871Z,484
2017-07-27T16:46:10.305Z,496
2017-07-27T16:48:11.739Z,540
2017-07-27T16:50:13.182Z,612
2017-07-27T16:52:14.608Z,536
2017-07-27T16:54:16.363Z,548
2017-07-27T16:56:17.850Z,528
2017-07-27T16:58:19.256Z,536
2017-07-27T17:00:20.676Z,524
2017-07-27T17:02:22.145Z,556
2017-07-27T17:04:23.671Z,496
2017-07-27T17:07:06.362Z,560
2017-07-27T17:09:07.803Z,572
2017-07-27T17:11:09.241Z,620
2017-07-27T17:13:10.689Z,656
2017-07-27T17:15:12.127Z,500
2017-07-27T17:17:13.562Z,456
2017-07-27T17:19:14.992Z,444
2017-07-27T17:21:16.431Z,496
2017-07-27T17:23:59.124Z,444
2017-07-27T17:26:00.560Z,460
2017-07-27T17:28:01.993Z,444
2017-07-27T17:30:03.430Z,444
2017-07-27T17:32:04.860Z,372
2017-07-27T17:34:06.295Z,424
2017-07-27T17:36:07.730Z,356
2017-07-27T17:38:09.167Z,348
2017-07-27T17:40:51.621Z,336
2017-07-27T17:42:53.050Z,352
2017-07-27T17:44:54.481Z,348
2017-07-27T17:46:55.918Z,320
2017-07-27T17:48:57.358Z,360
2017-07-27T17:50:58.795Z,324
2017-07-27T17:53:00.229Z,324
2017-07-27T17:55:41.894Z,304
2017-07-27T17:57:43.345Z,296
2017-07-27T17:59:44.779Z,280
2017-07-27T18:01:46.265Z,292
2017-07-27T18:03:47.658Z,268
2017-07-27T18:05:49.097Z,252
2017-07-27T18:07:50.585Z,240
2017-07-27T18:09:52.042Z,232
2017-07-27T18:11:53.508Z,224
2017-07-27T18:13:55.006Z,212
2017-07-27T18:15:56.444Z,200
2017-07-27T18:17:57.951Z,188
2017-07-27T18:19:59.512Z,176
2017-07-27T18:22:01.037Z,168
2017-07-27T18:24:02.636Z,164
2017-07-27T18:26:04.310Z,156
2017-07-27T18:28:05.817Z,148
2017-07-27T18:30:07.356Z,148
2017-07-27T18:32:08.992Z,140
2017-07-27T18:34:10.591Z,140
2017-07-27T18:36:12.175Z,132
2017-07-27T18:38:13.623Z,128
2017-07-27T18:40:15.186Z,120
2017-07-27T18:42:16.932Z,116
2017-07-27T18:44:18.598Z,108
2017-07-27T18:46:20.304Z,100
2017-07-27T18:48:21.806Z,92
2017-07-27T18:50:23.307Z,84
2017-07-27T18:52:24.888Z,72
2017-07-27T18:54:26.366Z,60
2017-07-27T18:56:27.896Z,52
2017-07-27T18:58:29.612Z,44
2017-07-27T19:01:13.484Z,36
2017-07-27T19:03:14.851Z,32
2017-07-27T19:05:16.281Z,28
2017-07-27T19:07:17.718Z,28
2017-07-27T19:09:19.254Z,24
2017-07-27T19:11:20.690Z,24
2017-07-27T19:13:22.163Z,20
2017-07-27T19:15:23.646Z,16
2017-07-27T19:18:05.071Z,16
2017-07-27T19:20:06.501Z,16
2017-07-27T19:22:07.935Z,16
2017-07-27T19:24:09.366Z,12
2017-07-27T19:26:10.799Z,12
2017-07-27T19:28:12.279Z,8
2017-07-27T19:30:13.769Z,8
2017-07-27T19:32:55.352Z,8
2017-07-27T19:34:56.768Z,8
2017-07-27T19:36:58.198Z,8
2017-07-27T19:38:59.631Z,4
2017-07-27T19:41:01.141Z,4
2017-07-27T19:43:02.544Z,4
2017-07-27T19:45:44.967Z,4
2017-07-27T19:47:46.398Z,0
2017-07-27T19:49:47.829Z,0
2017-07-27T19:51:49.261Z,0
2017-07-27T19:53:50.696Z,4
2017-07-27T19:55:52.193Z,0
2017-07-27T19:57:53.596Z,0
2017-07-27T19:59:55.044Z,0
2017-07-27T20:01:56.476Z,0
2017-07-27T20:04:39.044Z,0
2017-07-27T20:06:40.452Z,0
2017-07-27T20:08:41.900Z,0
2017-07-27T20:10:43.580Z,0
2017-07-27T20:12:45.009Z,0
2017-07-27T20:14:46.436Z,0
2017-07-27T20:16:47.883Z,0
2017-07-27T20:18:49.371Z,0
2017-07-27T20:21:31.806Z,0
2017-07-27T20:23:33.225Z,0
2017-07-27T20:25:34.666Z,0
2017-07-27T20:27:36.094Z,0
2017-07-27T20:29:37.520Z,0
2017-07-27T20:31:38.960Z,0
2017-07-27T20:34:21.386Z,0
2017-07-27T20:37:03.954Z,0
2017-07-27T20:39:05.355Z,0
2017-07-27T20:41:06.802Z,0
2017-07-27T20:43:08.218Z,0
2017-07-27T20:45:09.648Z,0
2017-07-27T20:47:11.074Z,0
2017-07-27T20:49:12.506Z,0
2017-07-27T20:51:13.933Z,0
2017-07-27T20:53:56.373Z,0
2017-07-27T20:55:57.784Z,0
2017-07-27T20:57:59.378Z,0
2017-07-27T21:00:00.757Z,0
2017-07-27T21:02:02.212Z,0
2017-07-27T21:04:03.711Z,0
2017-07-27T21:06:05.219Z,0
2017-07-27T21:08:06.728Z,0
2017-07-27T21:10:08.181Z,0
2017-07-27T21:12:09.600Z,0
2017-07-27T21:14:11.036Z,0
2017-07-27T21:16:12.525Z,0
2017-07-27T21:18:13.992Z,0
2017-07-27T21:20:15.453Z,0
2017-07-27T21:22:16.892Z,0
2017-07-27T21:24:18.372Z,0
2017-07-27T21:27:00.813Z,0
2017-07-27T21:29:02.244Z,0
2017-07-27T21:31:03.656Z,0
2017-07-27T21:33:05.105Z,0
2017-07-27T21:35:06.521Z,0
2017-07-27T21:37:07.960Z,0
2017-07-27T21:39:09.386Z,0
2017-07-27T21:41:10.921Z,0
2017-07-27T21:43:12.362Z,0
2017-07-27T21:45:13.844Z,0
2017-07-27T21:47:15.288Z,0
2017-07-27T21:49:16.717Z,0
2017-07-27T21:51:18.150Z,0
2017-07-27T21:53:19.573Z,0
2017-07-27T21:55:21.005Z,0
2017-07-27T21:57:22.482Z,0
2017-07-27T21:59:23.929Z,0
2017-07-27T22:01:25.459Z,0
2017-07-27T22:03:26.935Z,0
2017-07-27T22:05:28.455Z,0
2017-07-27T22:07:29.988Z,0
2017-07-27T22:09:31.526Z,0
2017-07-27T22:11:33.050Z,0
2017-07-27T22:13:34.598Z,0
2017-07-27T22:15:35.998Z,0
2017-07-27T22:17:37.441Z,0
2017-07-27T22:19:38.867Z,0
2017-07-27T22:21:40.316Z,0
2017-07-27T22:23:41.744Z,0
2017-07-27T22:25:43.286Z,0
2017-07-27T22:27:44.823Z,0
2017-07-27T22:29:46.351Z,0
2017-07-27T22:31:47.828Z,0
2017-07-27T22:33:49.396Z,0
2017-07-27T22:35:50.872Z,0
2017-07-27T22:37:52.386Z,0
2017-07-27T22:39:53.911Z,0
2017-07-27T22:42:35.354Z,0
2017-07-27T22:44:36.784Z,0
2017-07-27T22:46:38.217Z,0
2017-07-27T22:48:39.662Z,0
2017-07-27T22:50:41.092Z,0
2017-07-27T22:52:42.582Z,0
2017-07-27T22:55:25.094Z,0
2017-07-27T22:58:07.493Z,0
2017-07-27T23:00:08.935Z,0
2017-07-27T23:02:10.389Z,0
2017-07-27T23:04:11.847Z,0
2017-07-27T23:06:13.269Z,0
2017-07-27T23:08:14.701Z,0
2017-07-27T23:10:16.129Z,0
2017-07-27T23:12:17.570Z,0
2017-07-27T23:14:59.983Z,0
2017-07-27T23:17:01.416Z,0
2017-07-27T23:19:02.878Z,0
2017-07-27T23:21:04.300Z,0
2017-07-27T23:23:05.723Z,0
2017-07-27T23:25:07.151Z,0
2017-07-27T23:27:08.600Z,0
2017-07-27T23:29:10.082Z,0
2017-07-27T23:31:11.607Z,0
2017-07-27T23:33:13.076Z,0
2017-07-27T23:35:14.614Z,0
2017-07-27T23:37:16.111Z,0
2017-07-27T23:39:17.619Z,0
2017-07-27T23:41:19.134Z,0
2017-07-27T23:43:20.645Z,0
2017-07-27T23:45:22.141Z,0
2017-07-27T23:48:05.700Z,0
2017-07-27T23:50:07.227Z,0
2017-07-27T23:52:08.817Z,0
2017-07-27T23:54:10.556Z,0
2017-07-27T23:56:11.987Z,0
2017-07-27T23:58:13.409Z,0
